Time;durP1;ratioP1;P1;durP2;ratioP2;P2;SDS_P1;SDS_P2;PMS_P1;PMS_P2;Temp;Humidity;BMP_temperature;BMP_pressure;BME280_temperature;BME280_humidity;BME280_pressure;Samples;Min_cycle;Max_cycle;Signal;HPM_P1;HPM_P2
2023/12/02 01:27:23;;;;;;;73.60;45.30;;;;;;;-1.22;100.00;99332.27;173555;1284;581173;-79
2023/12/02 01:31:25;;;;;;;71.60;41.90;;;;;;;-0.65;100.00;99333.19;175338;1269;154669;-79
2023/12/02 01:35:26;;;;;;;64.70;38.20;;;;;;;-0.54;100.00;99341.86;175305;1266;46113;-79
2023/12/02 01:39:28;;;;;;;60.90;35.00;;;;;;;-0.49;100.00;99347.71;174961;1266;46217;-77
2023/12/02 01:43:30;;;;;;;64.60;35.90;;;;;;;-0.46;100.00;99336.08;175646;1266;46119;-81
2023/12/02 01:47:31;;;;;;;76.60;40.80;;;;;;;-0.41;100.00;99333.58;175494;1266;46137;-81
2023/12/02 01:51:34;;;;;;;87.00;47.10;;;;;;;-0.36;100.00;99323.52;175533;1267;58167;-81
2023/12/02 01:55:36;;;;;;;81.90;50.80;;;;;;;-0.34;100.00;99322.56;175471;1266;46272;-81
2023/12/02 01:59:44;;;;;;;70.90;43.40;;;;;;;-0.31;100.00;99328.70;175131;1267;46128;-80
2023/12/02 02:03:50;;;;;;;79.80;46.10;;;;;;;-0.25;100.00;99328.73;175584;1266;46221;-82
2023/12/02 02:07:52;;;;;;;87.40;52.00;;;;;;;-0.23;100.00;99327.07;175694;1268;46074;-81
2023/12/02 02:11:53;;;;;;;75.10;42.20;;;;;;;-0.24;100.00;99336.85;175799;1265;57914;-81
2023/12/02 02:15:56;;;;;;;74.60;45.00;;;;;;;-0.25;100.00;99336.08;175103;1264;46153;-81
2023/12/02 02:19:57;;;;;;;77.20;44.80;;;;;;;-0.24;100.00;99325.02;175355;1267;46422;-82
2023/12/02 02:23:59;;;;;;;76.20;44.40;;;;;;;-0.24;100.00;99324.13;177533;1268;46109;-80
2023/12/02 02:28:01;;;;;;;70.00;43.60;;;;;;;-0.25;100.00;99325.06;177176;1263;44728;-80
2023/12/02 02:32:02;;;;;;;82.80;46.40;;;;;;;-0.22;100.00;99326.66;175982;1265;58239;-80
2023/12/02 02:36:05;;;;;;;79.80;50.80;;;;;;;-0.20;100.00;99326.54;177191;1260;46147;-77
2023/12/02 02:40:08;;;;;;;77.40;43.10;;;;;;;-0.15;100.00;99324.55;176043;1263;46120;-80
2023/12/02 02:44:10;;;;;;;82.10;45.80;;;;;;;-0.16;100.00;99319.71;176045;1260;46108;-79
2023/12/02 02:48:12;;;;;;;60.10;38.90;;;;;;;-0.16;100.00;99314.65;175761;1260;46102;-80
2023/12/02 02:52:14;;;;;;;73.00;42.80;;;;;;;-0.17;100.00;99318.91;175847;1259;58275;-81
2023/12/02 02:56:18;;;;;;;74.60;43.20;;;;;;;-0.21;100.00;99324.17;175782;1260;46553;-80
2023/12/02 03:00:21;;;;;;;67.90;38.90;;;;;;;-0.27;100.00;99323.27;175954;1262;46137;-80
2023/12/02 03:04:23;;;;;;;69.50;39.20;;;;;;;-0.34;100.00;99320.63;176945;1253;46114;-81
2023/12/02 03:08:24;;;;;;;72.00;42.00;;;;;;;-0.35;100.00;99311.48;176642;1256;46056;-81
2023/12/02 03:12:27;;;;;;;83.10;49.60;;;;;;;-0.40;100.00;99307.56;176472;1259;58321;-79
2023/12/02 03:16:29;;;;;;;72.40;46.50;;;;;;;-0.48;100.00;99303.92;176097;1259;46073;-81
2023/12/02 03:20:30;;;;;;;88.60;55.60;;;;;;;-0.56;100.00;99299.12;176209;1258;46117;-78
2023/12/02 03:24:32;;;;;;;93.20;55.50;;;;;;;-0.59;100.00;99295.27;176357;1259;46203;-80
2023/12/02 03:28:34;;;;;;;100.30;54.20;;;;;;;-0.65;100.00;99291.08;176661;1253;45987;-80
2023/12/02 03:32:40;;;;;;;86.90;48.80;;;;;;;-0.79;100.00;99287.41;176615;1256;58457;-80
2023/12/02 03:36:42;;;;;;;97.30;58.30;;;;;;;-0.89;100.00;99289.80;176367;1258;46255;-80
2023/12/02 03:40:43;;;;;;;105.70;55.90;;;;;;;-0.94;100.00;99299.98;176150;1254;46076;-80
2023/12/02 03:44:45;;;;;;;89.50;52.50;;;;;;;-1.01;100.00;99303.80;176496;1257;46320;-81
2023/12/02 03:48:47;;;;;;;76.10;49.00;;;;;;;-1.06;100.00;99293.98;176229;1257;46096;-79
2023/12/02 03:52:49;;;;;;;91.20;51.20;;;;;;;-1.11;100.00;99302.08;177198;1256;58189;-80
2023/12/02 03:56:50;;;;;;;88.00;52.90;;;;;;;-1.15;100.00;99294.22;176141;1257;46035;-81
2023/12/02 04:00:52;;;;;;;77.20;50.60;;;;;;;-1.20;100.00;99289.58;176246;1259;47949;-80
2023/12/02 04:04:54;;;;;;;86.90;50.20;;;;;;;-1.21;100.00;99299.40;176409;1257;46077;-80
2023/12/02 04:08:56;;;;;;;96.80;49.90;;;;;;;-1.20;100.00;99300.91;176885;1260;45945;-80
2023/12/02 04:12:57;;;;;;;88.60;52.80;;;;;;;-1.22;100.00;99303.27;176624;1258;59326;-80
2023/12/02 04:17:01;;;;;;;78.90;48.40;;;;;;;-1.24;100.00;99304.79;176552;1256;46028;-78
2023/12/02 04:21:06;;;;;;;86.00;48.30;;;;;;;-1.28;100.00;99308.62;175962;1255;46098;-79
2023/12/02 04:25:08;;;;;;;77.90;45.70;;;;;;;-1.27;100.00;99310.31;176215;1254;46073;-79
2023/12/02 04:29:10;;;;;;;72.30;40.50;;;;;;;-1.29;100.00;99306.73;176373;1258;46220;-80
2023/12/02 04:33:11;;;;;;;80.40;43.40;;;;;;;-1.31;100.00;99308.20;175934;1257;58206;-80
2023/12/02 04:37:13;;;;;;;70.30;44.50;;;;;;;-1.33;100.00;99293.53;176489;1257;46102;-79
2023/12/02 04:41:15;;;;;;;77.30;46.40;;;;;;;-1.36;100.00;99286.36;176359;1257;46617;-80
2023/12/02 04:45:17;;;;;;;82.10;47.30;;;;;;;-1.35;100.00;99278.66;176155;1258;46092;-81
2023/12/02 04:49:18;;;;;;;75.40;42.70;;;;;;;-1.29;100.00;99268.16;176068;1253;45990;-81
2023/12/02 04:53:20;;;;;;;76.90;44.80;;;;;;;-1.25;100.00;99265.49;176312;1254;59890;-80
2023/12/02 04:57:22;;;;;;;81.00;43.90;;;;;;;-1.25;100.00;99259.92;176125;1259;46115;-81
2023/12/02 05:01:24;;;;;;;82.70;53.00;;;;;;;-1.24;100.00;99248.58;176405;1254;45666;-81
2023/12/02 05:05:25;;;;;;;81.10;44.50;;;;;;;-1.22;100.00;99252.47;176025;1257;45974;-80
2023/12/02 05:09:27;;;;;;;79.40;45.30;;;;;;;-1.22;100.00;99256.31;176630;1255;45984;-80
2023/12/02 05:13:29;;;;;;;84.40;41.90;;;;;;;-1.27;100.00;99259.35;176329;1254;58220;-78
2023/12/02 05:17:30;;;;;;;73.40;45.40;;;;;;;-1.24;100.00;99268.09;176255;1257;45981;-79
2023/12/02 05:21:32;;;;;;;76.10;44.60;;;;;;;-1.24;100.00;99268.42;175980;1259;46159;-80
2023/12/02 05:25:34;;;;;;;66.40;38.80;;;;;;;-1.22;100.00;99264.67;176495;1253;46105;-79
2023/12/02 05:29:35;;;;;;;72.20;45.70;;;;;;;-1.23;100.00;99273.21;176346;1259;46113;-81
2023/12/02 05:33:37;;;;;;;78.60;45.00;;;;;;;-1.21;100.00;99271.89;176121;1258;59215;-80
2023/12/02 05:37:39;;;;;;;73.20;47.10;;;;;;;-1.21;100.00;99276.08;176721;1254;46169;-79
2023/12/02 05:41:44;;;;;;;91.00;46.40;;;;;;;-1.25;100.00;99274.55;176557;1258;46351;-80
2023/12/02 05:45:46;;;;;;;88.40;50.40;;;;;;;-1.24;100.00;99269.30;176289;1258;45992;-81
2023/12/02 05:49:49;;;;;;;75.70;41.70;;;;;;;-1.21;100.00;99272.27;176602;1258;46444;-80
2023/12/02 05:53:50;;;;;;;83.10;47.10;;;;;;;-1.29;100.00;99281.36;176153;1256;59880;-79
2023/12/02 05:57:52;;;;;;;75.70;49.50;;;;;;;-1.36;100.00;99288.81;176685;1255;46751;-81
2023/12/02 06:01:54;;;;;;;85.70;49.70;;;;;;;-1.47;100.00;99296.29;176216;1258;46115;-80
2023/12/02 06:05:56;;;;;;;86.20;48.70;;;;;;;-1.54;100.00;99303.27;176265;1258;46227;-82
2023/12/02 06:09:58;;;;;;;93.30;56.60;;;;;;;-1.60;100.00;99299.84;175938;1257;45991;-80
2023/12/02 06:13:59;;;;;;;88.20;48.60;;;;;;;-1.61;100.00;99281.27;176243;1258;59350;-80
2023/12/02 06:18:02;;;;;;;74.70;49.00;;;;;;;-1.70;100.00;99285.88;176462;1259;46152;-81
2023/12/02 06:22:05;;;;;;;87.90;49.50;;;;;;;-1.76;100.00;99283.55;177656;1257;46346;-81
2023/12/02 06:26:07;;;;;;;100.60;57.90;;;;;;;-1.74;100.00;99294.07;178900;1254;46098;-80
2023/12/02 06:30:09;;;;;;;84.50;47.60;;;;;;;-1.72;100.00;99295.56;176847;1258;46099;-80
2023/12/02 06:34:16;;;;;;;92.10;50.60;;;;;;;-1.70;100.00;99297.39;177825;1254;58848;-82
2023/12/02 06:38:17;;;;;;;90.50;51.80;;;;;;;-1.68;100.00;99301.45;176573;1253;45980;-81
2023/12/02 06:42:19;;;;;;;84.50;46.60;;;;;;;-1.66;100.00;99292.84;176630;1254;45958;-82
2023/12/02 06:46:22;;;;;;;97.60;55.30;;;;;;;-1.66;100.00;99296.51;176557;1260;46281;-81
2023/12/02 06:50:24;;;;;;;92.00;53.80;;;;;;;-1.66;100.00;99304.80;176888;1257;46096;-81
2023/12/02 06:54:26;;;;;;;80.10;49.60;;;;;;;-1.65;100.00;99309.47;176578;1254;57936;-82
2023/12/02 06:58:27;;;;;;;83.00;50.40;;;;;;;-1.65;100.00;99316.43;176880;1257;46207;-82
2023/12/02 07:02:29;;;;;;;91.90;52.20;;;;;;;-1.65;100.00;99315.05;176606;1254;44923;-82
2023/12/02 07:06:31;;;;;;;75.80;46.10;;;;;;;-1.69;100.00;99321.31;176474;1254;46452;-81
2023/12/02 07:10:33;;;;;;;77.80;49.30;;;;;;;-1.70;100.00;99324.84;176958;1254;46009;-81
2023/12/02 07:14:35;;;;;;;91.20;55.20;;;;;;;-1.73;100.00;99331.79;176876;1254;59566;-80
2023/12/02 07:18:37;;;;;;;88.10;50.10;;;;;;;-1.77;100.00;99334.55;176318;1254;45990;-81
2023/12/02 07:22:39;;;;;;;98.80;50.30;;;;;;;-1.76;100.00;99339.04;176547;1254;46127;-81
2023/12/02 07:26:41;;;;;;;96.30;51.40;;;;;;;-1.70;100.00;99341.36;176655;1254;46552;-79
2023/12/02 07:30:43;;;;;;;85.80;48.90;;;;;;;-1.67;100.00;99348.35;176825;1257;46227;-80
2023/12/02 07:34:45;;;;;;;77.70;49.20;;;;;;;-1.63;100.00;99352.34;176569;1255;60429;-79
2023/12/02 07:38:47;;;;;;;85.40;51.40;;;;;;;-1.63;100.00;99359.64;176873;1254;46178;-81
2023/12/02 07:42:49;;;;;;;84.90;50.90;;;;;;;-1.54;100.00;99363.40;177187;1254;46895;-79
2023/12/02 07:56:45;;;;;;;86.40;53.40;;;;;;;-1.31;100.00;99358.67;176147;1268;59894;-86
2023/12/02 08:00:47;;;;;;;94.80;56.20;;;;;;;-1.30;100.00;99370.11;175843;1268;46086;-85
2023/12/02 08:04:49;;;;;;;81.80;52.40;;;;;;;-1.27;100.00;99378.52;175845;1270;46085;-85
2023/12/02 08:09:14;;;;;;;79.50;48.00;;;;;;;-1.22;100.00;99374.08;175799;1267;46100;-85
2023/12/02 08:13:16;;;;;;;87.70;50.20;;;;;;;-1.16;100.00;99374.17;175707;1272;46104;-86
2023/12/02 08:17:19;;;;;;;92.40;53.80;;;;;;;-1.09;100.00;99371.90;175831;1268;58305;-86
2023/12/02 08:21:21;;;;;;;73.50;45.00;;;;;;;-1.07;100.00;99370.58;175736;1272;45918;-86
2023/12/02 08:25:23;;;;;;;79.60;50.10;;;;;;;-1.01;100.00;99374.30;175767;1273;45944;-87
2023/12/02 08:29:25;;;;;;;90.40;50.90;;;;;;;-0.95;100.00;99371.92;175378;1267;46044;-87
2023/12/02 08:33:28;;;;;;;86.50;50.90;;;;;;;-0.85;100.00;99373.03;175386;1268;46063;-86
2023/12/02 08:37:30;;;;;;;89.90;49.00;;;;;;;-0.82;100.00;99372.85;175443;1272;58291;-87
2023/12/02 08:41:32;;;;;;;91.70;53.90;;;;;;;-0.77;100.00;99365.98;175312;1270;46120;-86
2023/12/02 08:45:35;;;;;;;97.40;50.60;;;;;;;-0.74;100.00;99367.41;175315;1273;46052;-86
2023/12/02 08:49:38;;;;;;;86.60;50.00;;;;;;;-0.68;100.00;99371.50;175648;1268;46131;-87
2023/12/02 08:53:41;;;;;;;104.60;54.80;;;;;;;-0.59;100.00;99384.81;175639;1267;46142;-88
2023/12/02 08:57:43;;;;;;;83.40;50.60;;;;;;;-0.47;100.00;99378.63;175519;1268;58897;-87
2023/12/02 09:01:45;;;;;;;86.10;52.50;;;;;;;-0.30;100.00;99372.86;176985;1270;46117;-87
2023/12/02 09:05:47;;;;;;;83.20;51.70;;;;;;;-0.11;100.00;99378.19;175835;1268;46053;-88
2023/12/02 09:09:49;;;;;;;86.50;50.30;;;;;;;0.05;100.00;99383.81;175600;1273;46220;-87
2023/12/02 09:13:51;;;;;;;82.80;54.10;;;;;;;0.12;100.00;99384.84;175891;1269;46194;-88
2023/12/02 09:18:07;;;;;;;94.40;51.80;;;;;;;0.21;100.00;99383.70;176076;1273;58238;-87
2023/12/02 09:22:42;;;;;;;96.30;55.60;;;;;;;0.31;100.00;99385.77;175978;1267;46127;-86
2023/12/02 09:26:46;;;;;;;73.90;45.10;;;;;;;0.40;100.00;99395.40;175989;1267;46140;-86
2023/12/02 09:31:11;;;;;;;81.30;44.90;;;;;;;0.56;100.00;99386.38;175938;1271;46005;-87
2023/12/02 09:35:13;;;;;;;88.30;52.10;;;;;;;0.77;100.00;99380.52;176385;1267;46005;-87
2023/12/02 09:39:15;;;;;;;69.90;42.40;;;;;;;0.99;99.65;99382.09;176028;1269;59561;-87
2023/12/02 09:43:29;;;;;;;86.60;45.70;;;;;;;1.10;98.32;99385.45;176240;1270;45886;-87
2023/12/02 09:47:39;;;;;;;86.70;54.10;;;;;;;1.20;97.53;99391.70;176451;1267;46066;-87
2023/12/02 09:52:03;;;;;;;80.60;46.50;;;;;;;1.21;96.48;99400.04;176264;1273;51786;-87
2023/12/02 09:56:15;;;;;;;71.80;44.50;;;;;;;1.24;96.86;99407.55;176200;1268;46018;-87
2023/12/02 10:00:29;;;;;;;70.60;43.00;;;;;;;1.21;96.65;99409.63;176485;1271;58878;-87
2023/12/02 10:04:54;;;;;;;61.80;41.40;;;;;;;1.08;96.44;99395.86;176009;1270;46100;-87
2023/12/02 10:09:26;;;;;;;61.80;39.70;;;;;;;0.96;96.73;99369.80;176230;1272;45982;-87
2023/12/02 10:18:12;;;;;;;55.30;35.50;;;;;;;0.78;97.99;99344.98;177470;1267;44222;-80
2023/12/02 10:22:17;;;;;;;68.50;43.50;;;;;;;0.85;98.48;99348.42;177068;1267;59225;-80
2023/12/02 10:26:27;;;;;;;74.40;48.50;;;;;;;0.98;98.37;99351.20;177163;1267;46139;-79
2023/12/02 10:30:38;;;;;;;63.60;39.70;;;;;;;1.16;98.03;99357.00;176264;1267;46035;-80
2023/12/02 10:35:00;;;;;;;75.30;43.00;;;;;;;1.28;96.77;99349.66;174741;1268;46129;-79
2023/12/02 10:39:09;;;;;;;70.60;41.70;;;;;;;1.39;95.56;99364.27;174858;1267;46145;-80
2023/12/02 10:43:41;;;;;;;54.80;35.20;;;;;;;1.36;94.85;99369.11;175028;1267;59548;-80
2023/12/02 10:47:46;;;;;;;46.80;30.60;;;;;;;1.35;94.82;99385.09;175955;1267;46229;-80
2023/12/02 10:51:50;;;;;;;47.90;32.70;;;;;;;1.39;95.77;99397.11;175227;1267;46117;-80
2023/12/02 10:56:21;;;;;;;50.80;31.70;;;;;;;1.49;95.96;99399.27;174999;1267;46020;-79
2023/12/02 11:00:24;;;;;;;50.70;32.20;;;;;;;1.59;95.03;99386.17;175234;1267;46178;-79
2023/12/02 11:04:26;;;;;;;45.80;28.30;;;;;;;1.58;94.30;99403.49;175608;1267;57881;-80
2023/12/02 11:08:48;;;;;;;49.30;29.50;;;;;;;1.54;93.72;99389.98;175379;1267;46445;-80
2023/12/02 11:12:59;;;;;;;48.80;31.10;;;;;;;1.49;94.12;99381.98;174762;1266;46039;-81
2023/12/02 11:17:15;;;;;;;50.30;32.10;;;;;;;1.42;94.43;99373.31;175399;1270;46273;-81
2023/12/02 11:21:33;;;;;;;50.30;31.20;;;;;;;1.36;94.39;99364.23;174842;1267;46008;-81
2023/12/02 11:25:48;;;;;;;48.00;32.10;;;;;;;1.24;96.05;99358.30;176143;1267;58356;-80
2023/12/02 11:29:59;;;;;;;41.10;30.30;;;;;;;1.09;96.87;99345.16;176636;1267;46128;-80
2023/12/02 11:34:30;;;;;;;50.70;32.20;;;;;;;1.04;97.69;99344.77;176626;1267;46433;-81
2023/12/02 11:38:34;;;;;;;51.30;32.60;;;;;;;1.05;98.55;99340.84;178195;1267;46097;-80
2023/12/02 11:43:00;;;;;;;53.60;31.40;;;;;;;1.10;98.88;99355.40;176672;1267;46089;-81
2023/12/02 11:47:25;;;;;;;45.50;29.30;;;;;;;0.99;98.98;99345.55;177372;1267;58740;-81
2023/12/02 11:51:57;;;;;;;41.40;25.70;;;;;;;0.84;99.99;99342.04;177305;1267;46111;-80
2023/12/02 11:56:10;;;;;;;43.90;29.00;;;;;;;0.58;100.00;99346.77;176489;1270;46146;-82
2023/12/02 12:00:48;;;;;;;40.90;25.80;;;;;;;0.42;100.00;99342.09;177603;1267;45140;-81
2023/12/02 12:05:10;;;;;;;34.70;21.00;;;;;;;0.35;100.00;99343.70;177756;1267;44139;-81
2023/12/02 12:09:42;;;;;;;40.30;21.50;;;;;;;0.32;100.00;99349.74;176462;1267;57932;-81
2023/12/02 12:13:46;;;;;;;32.10;19.70;;;;;;;0.24;100.00;99363.46;177599;1267;46439;-80
2023/12/02 12:17:48;;;;;;;29.20;16.90;;;;;;;0.10;100.00;99375.71;178009;1267;46234;-81
2023/12/02 12:21:50;;;;;;;29.00;20.20;;;;;;;-0.04;100.00;99374.16;177227;1267;45938;-79
2023/12/02 12:25:52;;;;;;;35.70;17.40;;;;;;;-0.11;100.00;99372.80;177572;1267;44621;-81
2023/12/02 12:29:55;;;;;;;31.80;19.90;;;;;;;-0.16;100.00;99366.07;177551;1267;57956;-80
2023/12/02 12:33:58;;;;;;;35.00;18.20;;;;;;;-0.21;100.00;99358.28;176810;1267;45973;-81
2023/12/02 12:37:59;;;;;;;30.70;19.50;;;;;;;-0.21;100.00;99344.01;177076;1267;45988;-83
2023/12/02 12:42:01;;;;;;;30.20;18.00;;;;;;;-0.29;100.00;99336.23;178786;1267;46135;-81
2023/12/02 12:46:03;;;;;;;26.50;18.40;;;;;;;-0.42;100.00;99338.30;178263;1267;45293;-86
2023/12/02 12:50:07;;;;;;;29.90;15.20;;;;;;;-0.51;100.00;99346.23;177045;1267;58474;-85
2023/12/02 12:54:15;;;;;;;27.80;16.50;;;;;;;-0.47;100.00;99338.03;176408;1267;45974;-84
2023/12/02 12:58:17;;;;;;;35.10;20.10;;;;;;;-0.47;100.00;99329.33;176347;1267;46236;-85
2023/12/02 13:02:58;;;;;;;31.50;19.70;;;;;;;-0.45;100.00;99325.25;176971;1267;46021;-86
2023/12/02 13:07:23;;;;;;;26.60;20.00;;;;;;;-0.59;100.00;99322.29;176057;1276;45676;-83
2023/12/02 13:11:31;;;;;;;33.20;20.80;;;;;;;-0.57;100.00;99329.84;175351;1275;59582;-86
2023/12/02 13:15:38;;;;;;;35.40;19.90;;;;;;;-0.60;100.00;99325.09;175541;1277;46092;-86
2023/12/02 13:19:44;;;;;;;;;;;;;;;-0.58;100.00;99320.16;175736;1276;46064;-85
2023/12/02 13:23:51;;;;;;;26.90;14.80;;;;;;;-0.59;100.00;99327.33;176047;1276;44239;-85
2023/12/02 13:28:01;;;;;;;32.80;20.00;;;;;;;-0.70;100.00;99332.42;175553;1276;242664;-84
2023/12/02 13:32:03;;;;;;;26.40;17.70;;;;;;;-0.88;100.00;99338.55;174968;1276;59812;-85
2023/12/02 13:36:17;;;;;;;26.20;17.30;;;;;;;-1.02;100.00;99360.93;175261;1267;46054;-85
2023/12/02 13:40:23;;;;;;;25.30;17.90;;;;;;;-1.14;100.00;99368.34;176625;1267;46232;-85
2023/12/02 13:44:29;;;;;;;;;;;;;;;-1.19;100.00;99379.00;176552;1267;46043;-84
2023/12/02 13:49:10;;;;;;;27.80;15.90;;;;;;;-1.23;100.00;99395.36;176647;1267;45787;-85
2023/12/02 13:53:35;;;;;;;22.70;11.30;;;;;;;-1.24;100.00;99412.97;176481;1267;59481;-84
2023/12/02 13:57:58;;;;;;;27.20;15.40;;;;;;;-1.35;100.00;99431.39;176147;1269;46107;-86
2023/12/02 14:02:37;;;;;;;21.60;14.20;;;;;;;-1.38;100.00;99438.67;177230;1267;46050;-83
2023/12/02 14:06:52;;;;;;;23.50;14.00;;;;;;;-1.43;100.00;99434.38;177953;1267;45372;-85
2023/12/02 14:10:55;;;;;;;24.40;13.10;;;;;;;-1.46;100.00;99444.59;176437;1267;46123;-85
2023/12/02 14:15:15;;;;;;;31.40;15.70;;;;;;;-1.45;100.00;99450.09;176131;1267;59653;-85
2023/12/02 14:19:51;;;;;;;28.60;13.20;;;;;;;-1.47;100.00;99456.83;176944;1267;46269;-84
2023/12/02 14:23:53;;;;;;;21.40;11.50;;;;;;;-1.46;100.00;99464.61;178591;1270;44015;-82
2023/12/02 14:28:13;;;;;;;21.10;12.40;;;;;;;-1.47;100.00;99463.78;179435;1267;46036;-83
2023/12/02 14:32:37;;;;;;;28.40;16.00;;;;;;;-1.49;100.00;99450.66;177203;1270;46113;-83
2023/12/02 14:37:08;;;;;;;41.40;21.10;;;;;;;-1.47;100.00;99449.33;176904;1267;58064;-84
2023/12/02 14:41:34;;;;;;;31.00;18.30;;;;;;;-1.46;100.00;99451.88;176801;1267;46258;-84
2023/12/02 14:45:38;;;;;;;39.80;16.60;;;;;;;-1.53;100.00;99449.65;176939;1267;46188;-82
2023/12/02 14:49:44;;;;;;;25.10;14.00;;;;;;;-1.55;100.00;99443.42;177870;1268;44284;-85
2023/12/02 14:53:47;;;;;;;26.10;17.50;;;;;;;-1.66;100.00;99436.80;177216;1268;46053;-84
2023/12/02 14:58:22;;;;;;;21.20;14.20;;;;;;;-1.76;100.00;99436.17;177580;1267;59421;-84
2023/12/02 15:02:39;;;;;;;25.20;16.60;;;;;;;-1.77;100.00;99456.40;177529;1267;46096;-85
2023/12/02 15:06:41;;;;;;;42.90;27.10;;;;;;;-1.81;100.00;99473.63;176828;1267;46097;-85
2023/12/02 15:10:47;;;;;;;37.30;23.40;;;;;;;-1.76;100.00;99487.48;176813;1272;46170;-85
2023/12/02 15:14:49;;;;;;;40.40;21.30;;;;;;;-1.73;100.00;99486.84;176605;1267;48304;-84
2023/12/02 15:18:52;;;;;;;34.80;18.90;;;;;;;-1.74;100.00;99479.75;176553;1267;58257;-84
2023/12/02 15:23:29;;;;;;;29.70;17.10;;;;;;;-1.83;100.00;99481.01;176669;1268;46132;-83
2023/12/02 15:27:31;;;;;;;60.40;31.40;;;;;;;-1.86;100.00;99493.79;176395;1267;46059;-85
2023/12/02 15:31:33;;;;;;;204.60;80.40;;;;;;;-1.91;100.00;99502.90;176590;1267;46158;-84
2023/12/02 15:35:35;;;;;;;191.00;83.00;;;;;;;-1.91;100.00;99510.55;177197;1268;45994;-84
2023/12/02 15:39:37;;;;;;;124.20;50.20;;;;;;;-1.93;100.00;99516.71;176862;1267;57924;-83
2023/12/02 15:43:39;;;;;;;67.20;33.40;;;;;;;-1.90;100.00;99526.67;176391;1268;45559;-85
2023/12/02 15:47:40;;;;;;;69.10;31.30;;;;;;;-1.84;100.00;99528.85;176469;1267;46122;-87
2023/12/02 15:51:42;;;;;;;73.30;34.00;;;;;;;-1.82;100.00;99527.88;177059;1266;45747;-88
2023/12/02 15:55:45;;;;;;;49.80;25.50;;;;;;;-1.84;100.00;99527.99;177629;1267;46063;-86
2023/12/02 15:59:47;;;;;;;45.10;22.00;;;;;;;-1.82;100.00;99528.59;177253;1267;57692;-85
2023/12/02 16:03:49;;;;;;;48.40;23.40;;;;;;;-1.84;100.00;99532.30;176955;1266;45894;-85
2023/12/02 16:07:53;;;;;;;44.30;25.30;;;;;;;-1.92;100.00;99532.65;177551;1267;46094;-86
2023/12/02 16:11:57;;;;;;;37.70;20.40;;;;;;;-1.92;100.00;99532.80;177003;1266;46293;-85
2023/12/02 16:16:10;;;;;;;34.10;18.50;;;;;;;-2.00;100.00;99534.38;177063;1267;46046;-84
2023/12/02 16:20:13;;;;;;;32.00;16.80;;;;;;;-2.07;100.00;99532.03;176829;1267;59868;-83
2023/12/02 16:24:15;;;;;;;42.30;24.30;;;;;;;-2.12;100.00;99536.27;176747;1266;46112;-84
2023/12/02 16:28:18;;;;;;;32.50;21.00;;;;;;;-2.06;100.00;99534.12;177141;1268;46011;-85
2023/12/02 16:32:22;;;;;;;37.50;19.40;;;;;;;-2.03;100.00;99540.55;177114;1267;46130;-86
2023/12/02 16:40:59;;;;;;;26.10;16.50;;;;;;;-2.03;100.00;99543.38;178498;1267;57328;-84
2023/12/02 16:45:14;;;;;;;20.70;12.50;;;;;;;-2.06;100.00;99543.66;178424;1267;45180;-86
2023/12/02 16:49:18;;;;;;;21.80;11.30;;;;;;;-2.09;100.00;99552.46;177355;1268;46207;-88
2023/12/02 16:53:23;;;;;;;20.00;12.10;;;;;;;-2.12;100.00;99557.31;177722;1267;46127;-85
2023/12/02 16:57:28;;;;;;;20.30;13.10;;;;;;;-2.10;100.00;99559.31;178602;1268;44138;-85
2023/12/02 17:01:35;;;;;;;19.30;10.10;;;;;;;-2.15;100.00;99560.54;177387;1268;59508;-85
2023/12/02 17:05:36;;;;;;;18.80;11.80;;;;;;;-2.23;100.00;99567.98;177176;1268;46127;-86
2023/12/02 17:09:40;;;;;;;21.10;13.10;;;;;;;-2.24;100.00;99576.70;177384;1268;46146;-87
2023/12/02 17:13:59;;;;;;;17.00;10.60;;;;;;;-2.31;100.00;99587.03;176926;1268;46037;-87
2023/12/02 17:18:27;;;;;;;33.90;23.10;;;;;;;-2.33;100.00;99594.95;177240;1268;45943;-84
2023/12/02 17:22:31;;;;;;;67.30;24.70;;;;;;;-2.32;100.00;99607.07;177598;1268;59368;-86
2023/12/02 17:26:36;;;;;;;29.30;17.40;;;;;;;-2.27;100.00;99605.14;176835;1267;46122;-86
2023/12/02 17:30:38;;;;;;;49.80;20.20;;;;;;;-2.37;100.00;99615.60;176757;1268;46083;-88
2023/12/02 17:34:40;;;;;;;21.20;10.30;;;;;;;-2.35;100.00;99626.31;177095;1269;45970;-86
2023/12/02 17:38:42;;;;;;;12.50;9.50;;;;;;;-2.47;100.00;99634.20;177320;1270;46105;-86
2023/12/02 17:42:44;;;;;;;20.90;11.70;;;;;;;-2.53;100.00;99641.91;176747;1271;58882;-86
2023/12/02 17:46:47;;;;;;;21.60;11.80;;;;;;;-2.63;100.00;99653.55;176892;1268;46133;-81
2023/12/02 17:50:50;;;;;;;25.40;14.70;;;;;;;-2.65;100.00;99654.69;179705;1267;43504;-84
2023/12/02 17:54:51;;;;;;;16.40;10.80;;;;;;;-2.65;100.00;99658.50;178168;1267;44948;-84
2023/12/02 17:58:54;;;;;;;22.80;10.80;;;;;;;-2.62;100.00;99661.36;176912;1268;46078;-87
2023/12/02 18:02:56;;;;;;;17.90;9.40;;;;;;;-2.56;100.00;99666.85;176350;1267;59452;-83
2023/12/02 18:06:58;;;;;;;26.60;12.30;;;;;;;-2.59;100.00;99674.24;176631;1267;46161;-85
2023/12/02 18:11:00;;;;;;;25.10;14.60;;;;;;;-2.57;100.00;99678.52;176635;1268;46024;-86
2023/12/02 18:15:02;;;;;;;19.80;12.10;;;;;;;-2.55;100.00;99679.48;176260;1267;46591;-84
2023/12/02 18:19:06;;;;;;;22.30;14.70;;;;;;;-2.59;100.00;99686.59;175953;1268;44598;-85
2023/12/02 18:23:08;;;;;;;26.30;11.00;;;;;;;-2.61;100.00;99689.23;176512;1267;58186;-87
2023/12/02 18:27:10;;;;;;;25.50;15.70;;;;;;;-2.68;100.00;99693.30;176690;1267;46050;-85
2023/12/02 18:31:13;;;;;;;29.90;13.80;;;;;;;-2.61;100.00;99693.58;177042;1268;46193;-85
2023/12/02 18:35:16;;;;;;;23.40;15.90;;;;;;;-2.62;100.00;99701.08;176948;1267;46126;-88
2023/12/02 18:39:18;;;;;;;29.80;16.60;;;;;;;-2.61;100.00;99701.91;177163;1268;46076;-85
2023/12/02 18:43:20;;;;;;;28.00;15.20;;;;;;;-2.65;100.00;99710.73;177233;1267;58195;-86
2023/12/02 18:47:22;;;;;;;23.70;15.10;;;;;;;-2.69;100.00;99721.80;176853;1267;46257;-83
2023/12/02 18:51:24;;;;;;;26.60;14.10;;;;;;;-2.76;100.00;99730.40;177022;1267;46123;-87
2023/12/02 18:55:26;;;;;;;27.70;14.20;;;;;;;-2.77;100.00;99732.36;176949;1268;46249;-85
2023/12/02 18:59:28;;;;;;;19.70;12.00;;;;;;;-2.80;100.00;99735.40;177272;1268;46260;-87
2023/12/02 19:03:30;;;;;;;24.70;13.10;;;;;;;-2.82;100.00;99737.55;177708;1268;59417;-86
2023/12/02 19:07:32;;;;;;;26.30;14.90;;;;;;;-2.82;100.00;99739.12;177402;1268;46114;-87
2023/12/02 19:11:34;;;;;;;25.50;12.40;;;;;;;-2.83;100.00;99739.13;177610;1268;46011;-85
2023/12/02 19:15:39;;;;;;;35.40;16.40;;;;;;;-2.81;100.00;99741.17;177209;1268;44137;-86
2023/12/02 19:19:41;;;;;;;28.40;14.80;;;;;;;-2.89;100.00;99747.52;176663;1268;46079;-86
2023/12/02 19:23:44;;;;;;;32.90;18.90;;;;;;;-2.96;100.00;99758.69;177597;1268;57396;-86
2023/12/02 19:27:46;;;;;;;27.90;12.20;;;;;;;-2.89;100.00;99764.34;176081;1267;46212;-85
2023/12/02 19:31:48;;;;;;;19.40;10.60;;;;;;;-2.95;100.00;99770.65;176741;1267;46109;-86
2023/12/02 19:35:50;;;;;;;29.10;15.50;;;;;;;-3.00;100.00;99772.51;176506;1267;45982;-86
2023/12/02 19:39:51;;;;;;;32.50;15.00;;;;;;;-3.03;100.00;99774.19;176868;1267;45976;-85
2023/12/02 19:43:54;;;;;;;28.50;12.50;;;;;;;-2.95;100.00;99777.91;176824;1267;59238;-88
2023/12/02 19:47:56;;;;;;;33.30;12.60;;;;;;;-2.96;100.00;99781.61;176300;1268;46111;-86
2023/12/02 19:51:59;;;;;;;29.60;15.70;;;;;;;-2.98;100.00;99784.96;177490;1268;46123;-85
2023/12/02 19:56:01;;;;;;;20.50;11.20;;;;;;;-2.98;100.00;99790.51;178293;1267;45876;-87
2023/12/02 20:00:04;;;;;;;26.60;17.60;;;;;;;-2.99;100.00;99798.17;178080;1267;46126;-88
2023/12/02 20:04:06;;;;;;;25.80;14.10;;;;;;;-2.96;100.00;99802.61;177362;1269;59327;-87
2023/12/02 20:08:08;;;;;;;26.30;15.80;;;;;;;-2.93;100.00;99810.14;177983;1267;45941;-88
2023/12/02 20:12:10;;;;;;;25.00;13.40;;;;;;;-2.94;100.00;99816.05;176991;1267;46110;-88
2023/12/02 20:16:12;;;;;;;19.60;11.20;;;;;;;-2.95;100.00;99823.91;177733;1267;44086;-84